createdAt,value
2018-01-23T00:02:15.966Z,96.57
2018-01-23T00:04:44.287Z,96.49
2018-01-23T00:07:12.645Z,96.38
2018-01-23T00:09:40.969Z,96.39
2018-01-23T00:12:09.313Z,96.54
2018-01-23T00:14:37.677Z,96.42
2018-01-23T00:17:06.021Z,96.51
2018-01-23T00:19:34.346Z,96.43
2018-01-23T00:22:02.690Z,96.40
2018-01-23T00:24:31.019Z,96.31
2018-01-23T00:26:59.366Z,96.30
2018-01-23T00:29:27.686Z,96.27
2018-01-23T00:31:56.114Z,96.42
2018-01-23T00:34:24.491Z,96.32
2018-01-23T00:36:52.833Z,96.33
2018-01-23T00:39:21.163Z,96.23
2018-01-23T00:41:49.513Z,96.20
2018-01-23T00:44:17.846Z,96.21
2018-01-23T00:46:46.189Z,96.21
2018-01-23T00:49:14.549Z,96.39
2018-01-23T00:51:42.930Z,96.37
2018-01-23T00:54:11.309Z,96.47
2018-01-23T00:56:39.677Z,96.42
2018-01-23T00:59:08.006Z,96.42
2018-01-23T01:01:36.353Z,96.55
2018-01-23T01:04:04.677Z,96.60
2018-01-23T01:06:33.085Z,96.78
2018-01-23T01:09:01.410Z,96.65
2018-01-23T01:11:29.753Z,96.48
2018-01-23T01:13:58.118Z,96.66
2018-01-23T01:16:26.493Z,96.57
2018-01-23T01:18:54.874Z,96.42
2018-01-23T01:21:23.233Z,96.40
2018-01-23T01:23:51.629Z,96.26
2018-01-23T01:26:19.970Z,96.33
2018-01-23T01:28:48.293Z,96.38
2018-01-23T01:31:16.642Z,96.28
2018-01-23T01:33:44.965Z,96.40
2018-01-23T01:36:13.410Z,96.35
2018-01-23T01:38:41.738Z,96.35
2018-01-23T01:41:10.057Z,96.35
2018-01-23T01:43:38.401Z,96.17
2018-01-23T01:46:06.813Z,96.15
2018-01-23T01:48:47.069Z,96.08
2018-01-23T01:51:15.396Z,95.94
2018-01-23T01:53:43.738Z,95.96
2018-01-23T01:56:12.101Z,96.03
2018-01-23T01:58:40.477Z,95.95
2018-01-23T02:01:08.802Z,95.75
2018-01-23T02:03:37.153Z,95.69
2018-01-23T02:06:05.477Z,95.58
2018-01-23T02:08:33.849Z,95.50
2018-01-23T02:11:02.178Z,95.29
2018-01-23T02:13:30.526Z,95.16
2018-01-23T02:15:58.849Z,95.13
2018-01-23T02:18:27.208Z,95.04
2018-01-23T02:20:55.565Z,95.06
2018-01-23T02:23:23.910Z,94.79
2018-01-23T02:25:52.233Z,94.89
2018-01-23T02:28:20.577Z,94.98
2018-01-23T02:30:48.973Z,94.92
2018-01-23T02:33:17.321Z,94.87
2018-01-23T02:35:45.649Z,94.76
2018-01-23T02:38:13.989Z,94.56
2018-01-23T02:40:42.377Z,94.27
2018-01-23T02:43:10.758Z,94.15
2018-01-23T02:45:39.074Z,94.01
2018-01-23T02:48:07.509Z,93.80
2018-01-23T02:50:35.835Z,93.85
2018-01-23T02:53:04.173Z,93.93
2018-01-23T02:55:32.501Z,93.79
2018-01-23T02:58:00.850Z,93.54
2018-01-23T03:00:29.177Z,93.60
2018-01-23T03:02:57.522Z,93.57
2018-01-23T03:05:25.850Z,93.44
2018-01-23T03:07:54.197Z,93.44
2018-01-23T03:10:22.593Z,93.55
2018-01-23T03:12:50.937Z,93.61
2018-01-23T03:15:19.348Z,93.61
2018-01-23T03:17:47.725Z,93.21
2018-01-23T03:20:16.081Z,93.20
2018-01-23T03:22:44.426Z,93.42
2018-01-23T03:25:12.737Z,93.24
2018-01-23T03:27:41.137Z,93.32
2018-01-23T03:30:09.453Z,93.35
2018-01-23T03:32:37.801Z,93.12
2018-01-23T03:35:06.118Z,92.99
2018-01-23T03:37:34.483Z,93.08
2018-01-23T03:40:02.813Z,92.96
2018-01-23T03:42:31.189Z,92.97
2018-01-23T03:44:59.534Z,92.93
2018-01-23T03:47:27.945Z,93.29
2018-01-23T03:49:56.289Z,93.08
2018-01-23T03:52:24.705Z,93.26
2018-01-23T03:54:53.049Z,93.44
2018-01-23T03:57:21.369Z,93.56
2018-01-23T03:59:49.713Z,93.42
2018-01-23T04:02:18.043Z,93.57
2018-01-23T04:04:46.385Z,93.51
2018-01-23T04:07:14.709Z,93.38
2018-01-23T04:09:43.053Z,93.50
2018-01-23T04:12:11.373Z,93.71
2018-01-23T04:14:39.717Z,93.83
2018-01-23T04:17:08.069Z,93.58
2018-01-23T04:19:36.444Z,93.59
2018-01-23T04:22:04.769Z,93.58
2018-01-23T04:24:33.122Z,93.74
2018-01-23T04:27:01.474Z,93.48
2018-01-23T04:29:29.816Z,93.62
2018-01-23T04:31:58.141Z,93.79
2018-01-23T04:34:26.486Z,93.87
2018-01-23T04:36:54.809Z,93.88
2018-01-23T04:39:23.261Z,93.87
2018-01-23T04:41:51.586Z,93.97
2018-01-23T04:44:19.933Z,94.11
2018-01-23T04:46:48.258Z,94.02
2018-01-23T04:49:16.601Z,94.23
2018-01-23T04:51:44.937Z,94.27
2018-01-23T04:54:13.282Z,94.42
2018-01-23T04:56:41.752Z,94.33
2018-01-23T04:59:10.077Z,94.37
2018-01-23T05:01:38.402Z,94.76
2018-01-23T05:04:06.749Z,94.60
2018-01-23T05:06:35.105Z,94.69
2018-01-23T05:09:03.454Z,94.91
2018-01-23T05:11:31.777Z,94.82
2018-01-23T05:14:00.197Z,94.88
2018-01-23T05:16:28.513Z,94.81
2018-01-23T05:18:56.856Z,94.79
2018-01-23T05:21:25.182Z,94.82
2018-01-23T05:23:53.521Z,94.85
2018-01-23T05:26:21.916Z,94.79
2018-01-23T05:28:50.289Z,94.97
2018-01-23T05:31:18.665Z,95.24
2018-01-23T05:33:47.017Z,95.32
2018-01-23T05:36:15.341Z,95.46
2018-01-23T05:38:43.779Z,95.62
2018-01-23T05:41:12.110Z,95.71
2018-01-23T05:43:40.437Z,95.81
2018-01-23T05:46:08.782Z,96.03
2018-01-23T05:48:37.109Z,96.07
2018-01-23T05:51:05.458Z,95.92
2018-01-23T05:53:33.781Z,95.84
2018-01-23T05:56:02.238Z,95.87
2018-01-23T05:58:30.569Z,96.09
2018-01-23T06:00:58.923Z,96.22
2018-01-23T06:03:27.261Z,96.08
2018-01-23T06:05:55.645Z,95.82
2018-01-23T06:08:23.982Z,96.14
2018-01-23T06:10:52.340Z,96.57
2018-01-23T06:13:20.679Z,96.66
2018-01-23T06:15:49.025Z,96.78
2018-01-23T06:18:17.430Z,96.60
2018-01-23T06:20:45.787Z,96.64
2018-01-23T06:23:14.117Z,96.63
2018-01-23T06:25:43.361Z,96.54
2018-01-23T06:28:11.689Z,96.59
2018-01-23T06:30:40.129Z,96.46
2018-01-23T06:33:08.509Z,96.30
2018-01-23T06:35:37.457Z,96.28
2018-01-23T06:38:05.877Z,96.28
2018-01-23T06:40:34.258Z,96.22
2018-01-23T06:43:02.588Z,96.41
2018-01-23T06:45:30.942Z,96.73
2018-01-23T06:47:59.270Z,96.69
2018-01-23T06:50:27.617Z,96.69
2018-01-23T06:52:55.949Z,96.81
2018-01-23T06:55:24.306Z,96.77
2018-01-23T06:57:52.637Z,96.65
2018-01-23T07:00:20.995Z,96.40
2018-01-23T07:02:49.327Z,96.42
2018-01-23T07:05:17.678Z,96.24
2018-01-23T07:07:46.010Z,96.35
2018-01-23T07:10:14.353Z,96.26
2018-01-23T07:12:42.690Z,96.45
2018-01-23T07:15:11.038Z,96.52
2018-01-23T07:17:39.373Z,96.20
2018-01-23T07:20:07.717Z,96.33
2018-01-23T07:22:36.049Z,96.30
2018-01-23T07:25:04.642Z,96.03
2018-01-23T07:27:33.042Z,96.13
2018-01-23T07:30:01.390Z,96.07
2018-01-23T07:32:29.713Z,96.17
2018-01-23T07:34:58.070Z,96.29
2018-01-23T07:37:26.398Z,96.38
2018-01-23T07:39:54.746Z,96.42
2018-01-23T07:42:23.077Z,95.92
2018-01-23T07:44:51.428Z,95.89
2018-01-23T07:47:19.932Z,95.86
2018-01-23T07:49:48.263Z,95.69
2018-01-23T07:52:16.645Z,96.01
2018-01-23T07:54:44.981Z,96.37
2018-01-23T07:57:13.657Z,96.50
2018-01-23T07:59:41.999Z,96.45
2018-01-23T08:02:10.379Z,96.33
2018-01-23T08:04:38.741Z,95.89
2018-01-23T08:07:07.095Z,96.02
2018-01-23T08:09:35.433Z,95.83
2018-01-23T08:12:03.773Z,95.36
2018-01-23T08:14:32.132Z,95.44
2018-01-23T08:17:00.476Z,95.52
2018-01-23T08:19:28.802Z,95.67
2018-01-23T08:21:57.156Z,95.32
2018-01-23T08:24:25.486Z,95.39
2018-01-23T08:26:53.838Z,95.12
2018-01-23T08:29:22.227Z,95.15
2018-01-23T08:31:50.648Z,95.01
2018-01-23T08:34:18.979Z,94.85
2018-01-23T08:36:48.290Z,94.92
2018-01-23T08:39:16.653Z,94.73
2018-01-23T08:41:45.040Z,94.46
2018-01-23T08:44:13.365Z,94.22
2018-01-23T08:46:41.718Z,94.08
2018-01-23T08:49:10.050Z,93.73
2018-01-23T08:51:38.401Z,93.78
2018-01-23T08:54:06.726Z,93.84
2018-01-23T08:56:35.081Z,93.84
2018-01-23T08:59:03.405Z,93.49
2018-01-23T09:01:31.757Z,93.76
2018-01-23T09:04:00.084Z,94.00
2018-01-23T09:06:28.429Z,94.32
2018-01-23T09:08:56.753Z,93.95
2018-01-23T09:11:25.101Z,94.05
2018-01-23T09:13:53.430Z,94.31
2018-01-23T09:16:21.776Z,94.23
2018-01-23T09:18:50.102Z,94.08
2018-01-23T09:21:18.453Z,93.73
2018-01-23T09:23:46.786Z,93.44
2018-01-23T09:26:15.138Z,93.19
2018-01-23T09:28:43.466Z,93.42
2018-01-23T09:31:11.813Z,93.43
2018-01-23T09:33:40.137Z,93.51
2018-01-23T09:36:08.485Z,93.14
2018-01-23T09:38:36.815Z,92.99
2018-01-23T09:41:05.162Z,93.08
2018-01-23T09:43:33.491Z,92.99
2018-01-23T09:46:01.838Z,92.38
2018-01-23T09:48:30.194Z,92.23
2018-01-23T09:50:58.526Z,92.22
2018-01-23T09:53:26.882Z,91.99
2018-01-23T09:55:55.209Z,91.94
2018-01-23T09:58:23.588Z,91.68
2018-01-23T10:00:51.887Z,91.59
2018-01-23T10:03:20.235Z,91.33
2018-01-23T10:05:48.566Z,90.77
2018-01-23T10:08:16.909Z,91.30
2018-01-23T10:10:45.243Z,91.31
2018-01-23T10:13:13.590Z,90.91
2018-01-23T10:15:41.922Z,90.13
2018-01-23T10:18:10.270Z,90.60
2018-01-23T10:20:38.597Z,90.99
2018-01-23T10:23:06.949Z,90.02
2018-01-23T10:25:35.277Z,90.35
2018-01-23T10:28:03.625Z,89.90
2018-01-23T10:30:31.957Z,89.88
2018-01-23T10:33:00.310Z,90.07
2018-01-23T10:35:28.639Z,89.98
2018-01-23T10:37:56.990Z,89.93
2018-01-23T10:40:25.316Z,89.64
2018-01-23T10:42:53.666Z,89.62
2018-01-23T10:45:21.993Z,89.72
2018-01-23T10:47:50.346Z,88.67
2018-01-23T10:50:18.678Z,89.35
2018-01-23T10:52:47.026Z,88.97
2018-01-23T10:55:15.353Z,88.38
2018-01-23T10:57:43.710Z,87.34
2018-01-23T11:00:12.038Z,87.62
2018-01-23T11:02:40.386Z,87.39
2018-01-23T11:05:08.714Z,87.70
2018-01-23T11:07:37.070Z,87.01
2018-01-23T11:10:05.394Z,86.89
2018-01-23T11:12:33.746Z,86.46
2018-01-23T11:15:02.069Z,87.07
2018-01-23T11:17:30.432Z,85.87
2018-01-23T11:19:58.754Z,86.71
2018-01-23T11:22:27.105Z,86.19
2018-01-23T11:24:55.438Z,85.66
2018-01-23T11:27:23.793Z,85.62
2018-01-23T11:29:52.122Z,86.08
2018-01-23T11:32:20.481Z,85.71
2018-01-23T11:34:48.801Z,85.34
2018-01-23T11:37:17.153Z,85.26
2018-01-23T11:39:45.481Z,84.06
2018-01-23T11:42:13.829Z,85.23
2018-01-23T11:44:42.160Z,84.46
2018-01-23T11:47:10.485Z,84.56
2018-01-23T11:49:38.838Z,84.58
2018-01-23T11:52:07.171Z,83.69
2018-01-23T11:54:35.522Z,83.49
2018-01-23T11:57:03.850Z,83.84
2018-01-23T11:59:32.210Z,84.06
2018-01-23T12:02:00.537Z,83.10
2018-01-23T12:04:28.897Z,82.97
2018-01-23T12:06:57.226Z,82.79
2018-01-23T12:09:25.577Z,82.61
2018-01-23T12:11:53.911Z,82.88
2018-01-23T12:14:22.257Z,83.24
2018-01-23T12:16:50.586Z,82.64
2018-01-23T12:19:18.970Z,83.36
2018-01-23T12:21:47.270Z,82.88
2018-01-23T12:24:15.612Z,82.97
2018-01-23T12:26:43.947Z,82.82
2018-01-23T12:29:12.299Z,82.58
2018-01-23T12:31:40.621Z,82.43
2018-01-23T12:34:08.965Z,82.64
2018-01-23T12:36:38.375Z,82.96
2018-01-23T12:39:07.409Z,83.24
2018-01-23T12:41:35.747Z,82.71
2018-01-23T12:44:04.093Z,83.59
2018-01-23T12:46:32.415Z,79.99
2018-01-23T12:49:00.765Z,80.01
2018-01-23T12:51:29.093Z,79.92
2018-01-23T12:53:58.509Z,79.47
2018-01-23T12:56:26.833Z,79.94
2018-01-23T12:58:55.180Z,80.90
2018-01-23T13:01:23.515Z,80.81
2018-01-23T13:03:51.859Z,81.21
2018-01-23T13:06:20.190Z,80.49
2018-01-23T13:08:48.533Z,79.70
2018-01-23T13:11:16.865Z,79.60
2018-01-23T13:13:45.213Z,79.21
2018-01-23T13:16:13.534Z,80.29
2018-01-23T13:18:41.882Z,79.29
2018-01-23T13:21:10.208Z,79.36
2018-01-23T13:23:38.546Z,79.34
2018-01-23T13:26:06.878Z,79.28
2018-01-23T13:28:35.226Z,78.33
2018-01-23T13:31:03.560Z,79.48
2018-01-23T13:33:31.901Z,78.27
2018-01-23T13:36:00.225Z,79.29
2018-01-23T13:38:28.573Z,78.89
2018-01-23T13:40:56.902Z,79.29
2018-01-23T13:43:25.262Z,78.75
2018-01-23T13:45:54.445Z,78.04
2018-01-23T13:48:22.802Z,77.94
2018-01-23T13:50:51.131Z,78.58
2018-01-23T13:53:19.458Z,77.57
2018-01-23T13:55:47.802Z,78.52
2018-01-23T13:58:16.130Z,77.63
2018-01-23T14:00:44.470Z,77.56
2018-01-23T14:03:12.797Z,77.33
2018-01-23T14:05:41.139Z,77.78
2018-01-23T14:08:09.472Z,77.72
2018-01-23T14:10:37.819Z,77.48
2018-01-23T14:13:06.135Z,77.60
2018-01-23T14:15:34.482Z,78.13
2018-01-23T14:18:02.807Z,78.46
2018-01-23T14:20:31.155Z,77.35
2018-01-23T14:22:59.478Z,78.28
2018-01-23T14:25:27.825Z,78.27
2018-01-23T14:27:56.153Z,77.90
2018-01-23T14:30:24.549Z,77.74
2018-01-23T14:32:52.852Z,77.70
2018-01-23T14:35:21.223Z,77.73
2018-01-23T14:37:49.534Z,77.86
2018-01-23T14:40:17.882Z,77.79
2018-01-23T14:42:46.206Z,77.80
2018-01-23T14:45:14.552Z,78.09
2018-01-23T14:47:42.890Z,77.98
2018-01-23T14:50:11.225Z,77.75
2018-01-23T14:52:39.550Z,77.68
2018-01-23T14:55:07.926Z,77.04
2018-01-23T14:57:36.241Z,77.56
2018-01-23T15:00:04.581Z,77.64
2018-01-23T15:02:32.963Z,77.85
2018-01-23T15:05:01.400Z,77.83
2018-01-23T15:07:30.489Z,77.80
2018-01-23T15:09:58.942Z,77.13
2018-01-23T15:12:27.253Z,77.61
2018-01-23T15:14:55.593Z,77.44
2018-01-23T15:17:23.929Z,77.79
2018-01-23T15:19:52.387Z,77.60
2018-01-23T15:22:20.707Z,78.43
2018-01-23T15:24:49.113Z,78.39
2018-01-23T15:27:17.452Z,78.59
2018-01-23T15:29:45.797Z,78.40
2018-01-23T15:32:14.239Z,78.26
2018-01-23T15:34:43.565Z,78.05
2018-01-23T15:37:12.063Z,78.19
2018-01-23T15:39:40.381Z,78.47
2018-01-23T15:42:08.750Z,78.11
2018-01-23T15:44:37.136Z,78.37
2018-01-23T15:47:05.646Z,78.47
2018-01-23T15:49:34.004Z,78.81
2018-01-23T15:52:02.374Z,79.20
2018-01-23T15:54:30.733Z,78.58
2018-01-23T15:56:59.138Z,78.65
2018-01-23T15:59:27.560Z,78.70
2018-01-23T16:01:56.018Z,78.81
2018-01-23T16:04:24.356Z,79.04
2018-01-23T16:06:52.744Z,79.00
2018-01-23T16:09:21.117Z,78.83
2018-01-23T16:11:49.456Z,79.13
2018-01-23T16:14:17.874Z,78.38
2018-01-23T16:16:46.219Z,78.64
2018-01-23T16:19:14.757Z,78.97
2018-01-23T16:21:43.186Z,78.59
2018-01-23T16:24:11.494Z,78.17
2018-01-23T16:26:39.833Z,77.92
2018-01-23T16:29:20.004Z,78.02
2018-01-23T16:31:50.337Z,78.72
2018-01-23T16:34:18.718Z,78.40
2018-01-23T16:36:47.085Z,78.01
2018-01-23T16:39:15.466Z,78.58
2018-01-23T16:41:44.410Z,78.46
2018-01-23T16:44:12.806Z,78.54
2018-01-23T16:46:41.150Z,78.68
2018-01-23T16:49:09.487Z,78.86
2018-01-23T16:51:37.822Z,79.05
2018-01-23T16:54:06.145Z,78.54
2018-01-23T16:56:34.514Z,78.17
2018-01-23T16:59:02.837Z,78.13
2018-01-23T17:01:31.178Z,78.15
2018-01-23T17:03:59.488Z,78.02
2018-01-23T17:06:27.985Z,78.04
2018-01-23T17:08:56.344Z,78.86
2018-01-23T17:11:24.681Z,79.01
2018-01-23T17:13:53.786Z,79.24
2018-01-23T17:16:22.141Z,79.56
2018-01-23T17:18:50.461Z,79.33
2018-01-23T17:21:18.853Z,80.35
2018-01-23T17:23:47.277Z,80.72
2018-01-23T17:26:15.616Z,81.12
2018-01-23T17:28:44.006Z,81.53
2018-01-23T17:31:12.406Z,81.35
2018-01-23T17:33:40.781Z,82.42
2018-01-23T17:36:09.116Z,83.00
2018-01-23T17:38:37.537Z,83.92
2018-01-23T17:41:05.920Z,84.34
2018-01-23T17:43:34.241Z,84.56
2018-01-23T17:46:02.569Z,84.75
2018-01-23T17:48:30.976Z,85.06
2018-01-23T17:50:59.681Z,85.31
2018-01-23T17:53:27.992Z,86.04
2018-01-23T17:55:56.333Z,86.10
2018-01-23T17:58:24.697Z,86.76
2018-01-23T18:00:53.129Z,86.69
2018-01-23T18:03:21.517Z,87.57
2018-01-23T18:05:50.818Z,87.69
2018-01-23T18:08:19.128Z,88.16
2018-01-23T18:10:47.460Z,88.63
2018-01-23T18:13:15.797Z,89.37
2018-01-23T18:15:44.177Z,90.17
2018-01-23T18:18:12.602Z,90.36
2018-01-23T18:20:40.917Z,90.28
2018-01-23T18:23:09.253Z,90.37
2018-01-23T18:25:38.474Z,90.46
2018-01-23T18:28:06.821Z,90.58
2018-01-23T18:30:35.137Z,90.53
2018-01-23T18:33:03.492Z,90.39
2018-01-23T18:35:31.814Z,89.98
2018-01-23T18:38:00.592Z,89.62
2018-01-23T18:40:29.380Z,89.93
2018-01-23T18:42:58.268Z,89.98
2018-01-23T18:45:26.657Z,89.76
2018-01-23T18:47:55.071Z,89.80
2018-01-23T18:50:23.386Z,89.68
2018-01-23T18:52:51.826Z,89.62
2018-01-23T18:55:20.145Z,89.31
2018-01-23T18:57:48.481Z,89.49
2018-01-23T19:00:16.855Z,89.39
2018-01-23T19:02:45.277Z,89.75
2018-01-23T19:05:13.710Z,89.45
2018-01-23T19:07:42.050Z,89.17
2018-01-23T19:10:10.362Z,88.92
2018-01-23T19:12:38.706Z,88.99
2018-01-23T19:15:07.148Z,88.36
2018-01-23T19:17:40.398Z,88.00
2018-01-23T19:20:08.810Z,87.54
2018-01-23T19:22:37.526Z,87.25
2018-01-23T19:25:05.918Z,86.89
2018-01-23T19:27:34.261Z,86.58
2018-01-23T19:30:02.597Z,85.95
2018-01-23T19:32:30.982Z,85.16
2018-01-23T19:34:59.302Z,85.27
2018-01-23T19:37:27.733Z,84.67
2018-01-23T19:39:56.118Z,85.06
2018-01-23T19:42:24.484Z,84.94
2018-01-23T19:44:52.819Z,84.94
2018-01-23T19:47:21.145Z,84.79
2018-01-23T19:49:49.470Z,84.60
2018-01-23T19:52:17.849Z,85.16
2018-01-23T19:54:46.269Z,85.23
2018-01-23T19:57:14.604Z,85.14
2018-01-23T19:59:42.973Z,85.18
2018-01-23T20:02:13.344Z,85.06
2018-01-23T20:04:41.666Z,85.10
2018-01-23T20:07:10.052Z,84.76
2018-01-23T20:09:38.378Z,84.93
2018-01-23T20:12:06.725Z,84.64
2018-01-23T20:14:35.781Z,84.64
2018-01-23T20:17:04.229Z,84.71
2018-01-23T20:19:32.550Z,85.11
2018-01-23T20:22:00.866Z,85.61
2018-01-23T20:24:29.253Z,85.65
2018-01-23T20:26:57.573Z,85.80
2018-01-23T20:29:25.909Z,85.73
2018-01-23T20:31:54.289Z,85.57
2018-01-23T20:34:23.570Z,85.65
2018-01-23T20:36:51.941Z,85.47
2018-01-23T20:39:20.283Z,85.80
2018-01-23T20:41:48.626Z,85.21
2018-01-23T20:44:17.862Z,85.48
2018-01-23T20:46:46.186Z,85.63
2018-01-23T20:49:14.565Z,85.84
2018-01-23T20:51:42.922Z,85.60
2018-01-23T20:54:11.250Z,86.23
2018-01-23T20:56:39.570Z,86.47
2018-01-23T20:59:07.973Z,86.68
2018-01-23T21:01:36.285Z,86.82
2018-01-23T21:04:04.621Z,87.29
2018-01-23T21:06:32.978Z,88.53
2018-01-23T21:09:01.330Z,89.32
2018-01-23T21:11:29.667Z,90.09
2018-01-23T21:13:58.134Z,90.55
2018-01-23T21:16:26.504Z,90.35
2018-01-23T21:18:54.886Z,90.46
2018-01-23T21:21:23.201Z,90.40
2018-01-23T21:23:51.540Z,90.71
2018-01-23T21:26:19.915Z,90.75
2018-01-23T21:28:48.289Z,90.85
2018-01-23T21:31:18.002Z,91.12
2018-01-23T21:33:46.342Z,90.91
2018-01-23T21:36:14.737Z,91.09
2018-01-23T21:38:43.082Z,91.05
2018-01-23T21:41:11.558Z,91.09
2018-01-23T21:43:39.948Z,91.21
2018-01-23T21:46:08.238Z,91.26
2018-01-23T21:48:36.585Z,91.63
2018-01-23T21:51:05.249Z,91.74
2018-01-23T21:53:33.594Z,91.72
2018-01-23T21:56:01.918Z,92.13
2018-01-23T21:58:30.264Z,91.81
2018-01-23T22:00:58.633Z,91.90
2018-01-23T22:03:26.963Z,91.80
2018-01-23T22:05:55.281Z,91.79
2018-01-23T22:08:24.542Z,91.45
2018-01-23T22:10:52.853Z,91.60
2018-01-23T22:13:21.193Z,91.33
2018-01-23T22:15:49.525Z,91.39
2018-01-23T22:18:17.870Z,91.30
2018-01-23T22:20:46.197Z,91.51
2018-01-23T22:23:14.554Z,91.65
2018-01-23T22:25:43.769Z,91.97
2018-01-23T22:28:12.241Z,92.05
2018-01-23T22:30:40.577Z,92.20
2018-01-23T22:33:08.901Z,92.42
2018-01-23T22:35:37.254Z,92.75
2018-01-23T22:38:05.575Z,93.09
2018-01-23T22:40:33.918Z,93.25
2018-01-23T22:43:02.241Z,92.95
2018-01-23T22:45:30.573Z,92.71
2018-01-23T22:47:58.893Z,92.79
2018-01-23T22:50:27.233Z,92.63
2018-01-23T22:52:55.554Z,92.78
2018-01-23T22:55:23.892Z,92.75
2018-01-23T22:57:52.208Z,92.88
2018-01-23T23:00:20.557Z,92.75
2018-01-23T23:02:48.878Z,92.63
2018-01-23T23:05:17.214Z,92.41
2018-01-23T23:07:45.542Z,92.15
2018-01-23T23:10:13.881Z,92.44
2018-01-23T23:12:42.205Z,92.64
2018-01-23T23:15:10.549Z,92.70
2018-01-23T23:17:38.874Z,92.15
2018-01-23T23:20:07.216Z,91.79
2018-01-23T23:22:35.525Z,91.69
2018-01-23T23:25:03.865Z,91.66
2018-01-23T23:27:32.185Z,91.78
2018-01-23T23:30:00.525Z,91.77
2018-01-23T23:32:28.843Z,91.86
2018-01-23T23:34:57.173Z,91.58
2018-01-23T23:37:25.495Z,91.81
2018-01-23T23:39:53.833Z,91.94
2018-01-23T23:42:22.149Z,92.42
2018-01-23T23:44:50.485Z,92.89
2018-01-23T23:47:18.805Z,93.24
2018-01-23T23:49:47.149Z,93.45
2018-01-23T23:52:15.473Z,93.87
2018-01-23T23:54:43.813Z,93.92
2018-01-23T23:57:12.135Z,94.20
2018-01-23T23:59:40.518Z,94.31
